Dati Storici

Data ora Umidita' aria (%) Temperatura aria (°C) Rad globale (W/m²) Gonioanemometro (°) Tacoanemometro (m/s) Pioggia (mm)
10-10-2012 13:20 84.2 % 16.484 108.088 33.55 0.755 0
10-10-2012 13:10 84.9 % 16.517 101.95 13.263 1.362 0
10-10-2012 13:00 85.1 % 16.362 80.961 15.611 0.683 0
10-10-2012 12:50 86 % 16.232 116.446 16.03 1.643 0
10-10-2012 12:40 85.3 % 16.249 149.173 46.666 1.06 0
10-10-2012 12:30 83.8 % 16.485 149.917 76.68 1.656 0
10-10-2012 12:20 83.4 % 16.475 120.101 33.409 1.188 0
10-10-2012 12:10 83.4 % 16.614 95.205 53.668 1.617 0
10-10-2012 12:00 83.9 % 16.78 143.528 130.436 0.869 0
10-10-2012 11:50 84.3 % 16.556 117.911 49.529 1.335 0
10-10-2012 11:40 83.7 % 16.409 152.647 51.442 0.868 0
10-10-2012 11:30 83.8 % 16.386 104.433 28.971 1.492 0
10-10-2012 11:20 83.5 % 16.28 85.666 15.954 1.169 0
10-10-2012 11:10 83.5 % 16.309 114.64 28.98 1.577 0
10-10-2012 11:00 84.8 % 16.385 129.56 358.603 0.701 0
10-10-2012 10:50 84.9 % 16.11 88.669 21.178 1.374 0
10-10-2012 10:40 84.9 % 16.036 71.55 3.292 1.263 0
10-10-2012 10:30 85.1 % 16.066 85.906 8.944 2.763 0
10-10-2012 10:20 85.2 % 15.992 83.721 21.184 1.723 0
10-10-2012 10:10 85.3 % 15.96 80.521 10.537 2.367 0

I dati sono presentati in modo automatico a scopo informativo. In seguito a verifica i dati possono subire modifiche o essere invalidati e non riportati negli archivi definitivi.